Time;durP1;ratioP1;P1;durP2;ratioP2;P2;SDS_P1;SDS_P2;PMS_P1;PMS_P2;Temp;Humidity;BMP_temperature;BMP_pressure;BME280_temperature;BME280_humidity;BME280_pressure;Samples;Min_cycle;Max_cycle;Signal;HPM_P1;HPM_P2
2022/03/17 00:00:13;;;;;;;27.37;12.77;;;5.10;99.90;;;;;;5042321;28;20557;-66
2022/03/17 00:02:40;;;;;;;28.83;13.87;;;5.10;99.90;;;;;;5036436;28;20213;-65
2022/03/17 00:05:10;;;;;;;31.40;14.00;;;5.10;99.90;;;;;;5032144;28;20423;-65
2022/03/17 00:07:40;;;;;;;27.60;13.63;;;5.10;99.90;;;;;;5023812;28;20496;-65
2022/03/17 00:10:08;;;;;;;27.27;13.50;;;5.10;99.90;;;;;;5034082;28;20471;-65
2022/03/17 00:12:34;;;;;;;32.17;13.03;;;5.10;99.90;;;;;;5035550;28;20424;-65
2022/03/17 00:15:00;;;;;;;38.93;13.67;;;5.10;99.90;;;;;;5038747;28;20792;-66
2022/03/17 00:17:28;;;;;;;31.73;14.00;;;5.10;99.90;;;;;;5022108;28;20191;-66
2022/03/17 00:19:54;;;;;;;39.27;13.17;;;5.10;99.90;;;;;;5031722;28;20233;-65
2022/03/17 00:22:19;;;;;;;40.53;12.87;;;5.10;99.90;;;;;;5040389;28;20514;-65
2022/03/17 00:24:46;;;;;;;30.73;14.27;;;5.10;99.90;;;;;;5037003;28;20298;-62
2022/03/17 00:27:12;;;;;;;36.20;14.80;;;5.10;99.90;;;;;;5038668;28;20189;-64
2022/03/17 00:29:39;;;;;;;28.23;11.83;;;5.10;99.90;;;;;;5033725;28;20471;-63
2022/03/17 00:32:05;;;;;;;29.83;13.70;;;5.00;99.90;;;;;;5036668;28;20986;-65
2022/03/17 00:34:31;;;;;;;27.87;12.73;;;5.00;99.90;;;;;;5034962;28;20429;-64
2022/03/17 00:36:57;;;;;;;30.80;14.57;;;5.00;99.90;;;;;;5036085;28;20423;-64
2022/03/17 00:39:23;;;;;;;27.10;13.90;;;5.10;99.90;;;;;;5033408;28;20560;-65
2022/03/17 00:41:49;;;;;;;26.53;14.47;;;5.10;99.90;;;;;;5028950;28;20832;-64
2022/03/17 00:44:15;;;;;;;27.93;14.10;;;5.00;99.90;;;;;;5032223;28;20416;-63
2022/03/17 00:46:41;;;;;;;27.40;15.30;;;5.10;99.90;;;;;;5041568;28;20417;-64
2022/03/17 00:49:07;;;;;;;29.60;13.30;;;5.10;99.90;;;;;;5043157;28;20841;-63
2022/03/17 00:51:33;;;;;;;30.60;14.30;;;5.10;99.90;;;;;;5042369;28;20184;-64
2022/03/17 00:53:59;;;;;;;34.63;16.03;;;5.10;99.90;;;;;;5039764;28;21094;-64
2022/03/17 00:56:26;;;;;;;26.57;13.03;;;5.00;99.90;;;;;;5039188;28;20452;-65
2022/03/17 00:58:52;;;;;;;24.03;12.17;;;5.00;99.90;;;;;;5045082;28;20301;-65
2022/03/17 01:01:18;;;;;;;28.43;13.23;;;5.00;99.90;;;;;;5046107;28;21018;-65
2022/03/17 01:03:45;;;;;;;28.10;13.07;;;5.00;99.90;;;;;;5043928;28;20464;-64
2022/03/17 01:06:11;;;;;;;26.63;14.20;;;5.00;99.90;;;;;;5045414;28;20420;-65
2022/03/17 01:08:38;;;;;;;30.27;14.47;;;5.00;99.90;;;;;;5033790;28;20451;-65
2022/03/17 01:11:04;;;;;;;26.77;14.20;;;5.00;99.90;;;;;;5039716;28;20658;-65
2022/03/17 01:13:31;;;;;;;27.23;12.93;;;5.00;99.90;;;;;;5033875;28;20421;-65
2022/03/17 01:15:57;;;;;;;33.13;13.63;;;4.90;99.90;;;;;;5044354;28;20416;-65
2022/03/17 01:18:22;;;;;;;25.07;12.83;;;5.00;99.90;;;;;;5040362;28;20421;-65
2022/03/17 01:20:50;;;;;;;26.93;14.33;;;5.00;99.90;;;;;;5043458;28;20182;-65
2022/03/17 01:23:17;;;;;;;26.10;13.17;;;4.90;99.90;;;;;;5039801;28;20210;-63
2022/03/17 01:25:43;;;;;;;25.87;12.20;;;4.90;99.90;;;;;;5042651;28;20507;-66
2022/03/17 01:28:09;;;;;;;27.23;13.53;;;4.90;99.90;;;;;;5036338;28;20429;-65
2022/03/17 01:30:35;;;;;;;24.70;13.07;;;4.90;99.90;;;;;;5040801;28;20420;-66
2022/03/17 01:33:01;;;;;;;27.53;13.70;;;4.90;99.90;;;;;;5039397;28;20190;-66
2022/03/17 01:35:27;;;;;;;31.13;13.80;;;4.90;99.90;;;;;;5040278;28;20927;-65
2022/03/17 01:37:52;;;;;;;28.07;14.73;;;4.90;99.90;;;;;;5033567;28;20432;-65
2022/03/17 01:40:18;;;;;;;31.47;13.07;;;4.90;99.90;;;;;;5041251;28;20600;-65
2022/03/17 01:42:44;;;;;;;24.83;14.00;;;4.90;99.90;;;;;;5034341;28;20737;-65
2022/03/17 01:45:10;;;;;;;22.20;11.03;;;4.80;99.90;;;;;;5039725;28;20172;-66
2022/03/17 01:47:36;;;;;;;29.70;12.83;;;4.80;99.90;;;;;;5046522;28;20189;-66
2022/03/17 01:50:11;;;;;;;27.63;13.70;;;4.80;99.90;;;;;;5045005;28;20440;-65
2022/03/17 01:52:38;;;;;;;29.87;14.10;;;4.80;99.90;;;;;;5044542;28;20435;-65
2022/03/17 01:55:05;;;;;;;26.40;13.50;;;4.80;99.90;;;;;;5045775;28;20424;-65
2022/03/17 01:57:31;;;;;;;33.33;13.80;;;4.80;99.90;;;;;;5043625;28;20424;-66
2022/03/17 01:59:59;;;;;;;29.37;12.33;;;4.80;99.90;;;;;;5043392;28;20584;-66
2022/03/17 02:02:25;;;;;;;31.00;14.20;;;4.80;99.90;;;;;;5041775;28;20464;-66
2022/03/17 02:04:51;;;;;;;27.73;13.43;;;4.80;99.90;;;;;;5044436;28;20447;-65
2022/03/17 02:07:19;;;;;;;29.63;13.43;;;4.90;99.90;;;;;;5035777;28;20417;-64
2022/03/17 02:09:48;;;;;;;24.20;12.67;;;4.90;99.90;;;;;;5032454;28;20471;-66
2022/03/17 02:15:01;;;;;;;28.33;12.90;;;4.80;99.90;;;;;;5036995;28;20451;-65
2022/03/17 02:17:31;;;;;;;38.33;12.70;;;4.80;99.90;;;;;;5030588;28;20444;-65
2022/03/17 02:20:01;;;;;;;23.77;12.50;;;4.80;99.90;;;;;;5027286;28;20479;-65
2022/03/17 02:22:28;;;;;;;26.00;12.37;;;4.80;99.90;;;;;;5040143;28;20485;-65
2022/03/17 02:27:47;;;;;;;28.60;13.07;;;4.80;99.90;;;;;;5031226;28;20408;-64
2022/03/17 02:30:18;;;;;;;29.50;13.47;;;4.80;99.90;;;;;;5033644;28;20982;-62
2022/03/17 02:32:44;;;;;;;29.03;12.23;;;4.80;99.90;;;;;;5036152;28;20418;-65
2022/03/17 02:35:22;;;;;;;25.67;13.63;;;4.90;99.90;;;;;;5034569;28;20454;-65
2022/03/17 02:37:48;;;;;;;28.30;13.00;;;4.80;99.90;;;;;;5044917;28;20197;-66
2022/03/17 02:40:14;;;;;;;27.23;13.57;;;4.80;99.90;;;;;;5042183;28;20445;-66
2022/03/17 02:42:40;;;;;;;32.07;14.70;;;4.80;99.90;;;;;;5043953;28;20519;-65
2022/03/17 02:45:08;;;;;;;35.53;13.93;;;4.80;99.90;;;;;;5044250;28;20775;-64
2022/03/17 02:47:34;;;;;;;28.20;11.90;;;4.80;99.90;;;;;;5042682;28;20274;-65
2022/03/17 02:50:00;;;;;;;25.23;12.73;;;4.90;99.90;;;;;;5042808;28;20551;-65
2022/03/17 02:52:26;;;;;;;23.73;12.13;;;4.90;99.90;;;;;;5042473;28;20186;-64
2022/03/17 02:54:53;;;;;;;28.03;13.10;;;4.90;99.90;;;;;;5043554;28;20177;-65
2022/03/17 02:57:19;;;;;;;29.70;12.43;;;4.90;99.90;;;;;;5041507;28;20484;-65
2022/03/17 02:59:46;;;;;;;23.70;13.40;;;4.90;99.90;;;;;;5041860;28;20558;-65
2022/03/17 03:02:13;;;;;;;27.33;13.23;;;4.90;99.90;;;;;;5039393;28;20468;-64
2022/03/17 03:04:39;;;;;;;23.33;12.40;;;4.90;99.90;;;;;;5042052;28;20431;-65
2022/03/17 03:07:06;;;;;;;27.20;13.33;;;4.90;99.90;;;;;;5035468;28;20420;-65
2022/03/17 03:09:32;;;;;;;23.43;11.73;;;5.00;99.90;;;;;;5027671;28;20209;-65
2022/03/17 03:11:58;;;;;;;26.40;12.80;;;5.00;99.90;;;;;;5034959;28;20452;-66
2022/03/17 03:14:24;;;;;;;24.50;12.03;;;5.00;99.90;;;;;;5034102;28;20943;-65
2022/03/17 03:16:50;;;;;;;33.10;13.13;;;5.00;99.90;;;;;;5035895;28;20213;-65
2022/03/17 03:19:16;;;;;;;27.83;13.57;;;5.00;99.90;;;;;;5038768;28;20982;-65
2022/03/17 03:21:45;;;;;;;35.03;12.23;;;5.00;99.90;;;;;;5035548;28;21228;-66
2022/03/17 03:24:11;;;;;;;25.37;12.03;;;5.00;99.90;;;;;;5034154;28;20480;-65
2022/03/17 03:26:37;;;;;;;25.30;12.33;;;5.00;99.90;;;;;;5016653;28;20429;-64
2022/03/17 03:29:06;;;;;;;27.10;12.70;;;5.00;99.90;;;;;;5032672;28;20435;-66
2022/03/17 03:31:34;;;;;;;29.60;13.13;;;5.00;99.90;;;;;;5034020;28;20427;-65
2022/03/17 03:34:00;;;;;;;33.67;13.80;;;5.00;99.90;;;;;;5037165;28;20474;-66
2022/03/17 03:39:10;;;;;;;26.00;14.57;;;5.10;99.90;;;;;;5042821;28;20293;-65
2022/03/17 03:41:36;;;;;;;33.73;13.97;;;5.10;99.90;;;;;;5039718;28;20487;-65
2022/03/17 03:44:02;;;;;;;32.37;13.77;;;5.10;99.90;;;;;;5037592;28;20265;-65
2022/03/17 03:46:29;;;;;;;30.50;13.77;;;5.10;99.90;;;;;;5042285;28;20184;-64
2022/03/17 03:48:54;;;;;;;23.30;12.47;;;5.10;99.90;;;;;;5040251;28;20444;-66
2022/03/17 03:51:20;;;;;;;31.70;14.00;;;5.20;99.90;;;;;;5040925;28;20424;-65
2022/03/17 03:56:31;;;;;;;29.47;14.00;;;5.20;99.90;;;;;;5029420;28;20216;-66
2022/03/17 03:59:00;;;;;;;26.80;12.97;;;5.20;99.90;;;;;;5036898;28;20473;-65
2022/03/17 04:01:25;;;;;;;30.70;14.43;;;5.20;99.90;;;;;;5027674;28;20589;-64
2022/03/17 04:03:52;;;;;;;26.87;14.33;;;5.20;99.90;;;;;;5018496;28;20940;-66
2022/03/17 04:06:18;;;;;;;28.90;14.30;;;5.20;99.90;;;;;;5039496;28;20277;-66
2022/03/17 04:08:43;;;;;;;29.20;12.47;;;5.20;99.90;;;;;;5033401;28;20433;-67
2022/03/17 04:11:09;;;;;;;22.60;12.60;;;5.30;99.90;;;;;;5036201;28;20193;-66
2022/03/17 04:13:35;;;;;;;33.83;14.17;;;5.20;99.90;;;;;;5028756;28;20654;-64
2022/03/17 04:16:01;;;;;;;24.30;12.50;;;5.20;99.90;;;;;;5036923;28;20186;-65
2022/03/17 04:18:26;;;;;;;32.40;13.43;;;5.20;99.90;;;;;;5025527;28;20213;-64
2022/03/17 04:20:52;;;;;;;23.87;11.80;;;5.30;99.90;;;;;;5027383;28;20185;-62
2022/03/17 04:23:17;;;;;;;33.30;14.30;;;5.20;99.90;;;;;;5041712;28;20744;-65
2022/03/17 04:25:43;;;;;;;24.43;11.77;;;5.30;99.90;;;;;;5043910;28;20193;-65
2022/03/17 04:28:09;;;;;;;27.77;13.40;;;5.30;99.90;;;;;;5039719;28;20182;-65
2022/03/17 04:30:36;;;;;;;28.10;12.60;;;5.30;99.90;;;;;;5041375;28;20546;-65
2022/03/17 04:33:02;;;;;;;26.07;12.80;;;5.30;99.90;;;;;;5044826;28;20183;-65
2022/03/17 04:35:27;;;;;;;30.97;13.37;;;5.30;99.90;;;;;;5040897;28;20524;-64
2022/03/17 04:37:53;;;;;;;27.40;11.57;;;5.20;99.90;;;;;;5044013;28;20962;-65
2022/03/17 04:40:19;;;;;;;29.90;13.17;;;5.30;99.90;;;;;;5023045;28;20210;-65
2022/03/17 04:42:44;;;;;;;24.27;13.00;;;5.30;99.90;;;;;;5041790;28;20202;-65
2022/03/17 04:45:10;;;;;;;26.73;12.80;;;5.30;99.90;;;;;;5039706;28;20653;-64
2022/03/17 04:47:36;;;;;;;21.90;13.00;;;5.30;99.90;;;;;;5041096;28;20682;-64
2022/03/17 04:50:02;;;;;;;24.73;13.40;;;5.30;99.90;;;;;;5043293;28;20205;-64
2022/03/17 04:55:12;;;;;;;26.20;13.23;;;5.40;99.90;;;;;;5043939;28;20267;-66
2022/03/17 04:57:38;;;;;;;22.27;12.90;;;5.40;99.90;;;;;;5038107;28;21219;-64
2022/03/17 05:00:06;;;;;;;24.63;12.87;;;5.40;99.90;;;;;;5041648;28;20229;-63
2022/03/17 05:02:31;;;;;;;28.47;14.50;;;5.30;99.90;;;;;;5035043;28;20202;-65
2022/03/17 05:04:57;;;;;;;36.20;15.67;;;5.30;99.90;;;;;;5036791;28;20431;-64
2022/03/17 05:07:23;;;;;;;42.57;15.90;;;5.30;99.90;;;;;;5034144;28;20179;-65
2022/03/17 05:09:48;;;;;;;37.00;16.07;;;5.30;99.90;;;;;;5043566;28;20688;-65
2022/03/17 05:12:14;;;;;;;29.30;14.20;;;5.40;99.90;;;;;;5043804;28;20190;-64
2022/03/17 05:14:40;;;;;;;26.53;13.60;;;5.40;99.90;;;;;;5044295;28;20201;-63
2022/03/17 05:17:06;;;;;;;23.13;12.63;;;5.40;99.90;;;;;;5047187;28;20189;-65
2022/03/17 05:19:34;;;;;;;31.83;15.03;;;5.40;99.90;;;;;;5046021;28;20997;-65
2022/03/17 05:22:00;;;;;;;29.77;14.30;;;5.40;99.90;;;;;;5045836;28;20716;-66
2022/03/17 05:24:26;;;;;;;32.20;15.03;;;5.40;99.90;;;;;;5040257;28;20424;-66
2022/03/17 05:26:54;;;;;;;26.20;14.00;;;5.40;99.90;;;;;;5043238;28;20323;-64
2022/03/17 05:29:20;;;;;;;35.60;15.67;;;5.50;99.90;;;;;;5039826;28;20236;-66
2022/03/17 05:31:46;;;;;;;31.13;15.33;;;5.50;99.90;;;;;;5038146;28;20456;-66
2022/03/17 05:34:15;;;;;;;34.67;15.60;;;5.50;99.90;;;;;;5045332;28;20189;-67
2022/03/17 05:36:41;;;;;;;27.53;14.17;;;5.50;99.90;;;;;;5037328;28;20946;-65
2022/03/17 05:39:07;;;;;;;33.77;15.60;;;5.50;99.90;;;;;;5042427;28;20440;-67
2022/03/17 05:41:32;;;;;;;35.40;16.07;;;5.50;99.90;;;;;;5037650;28;20424;-64
2022/03/17 05:43:58;;;;;;;34.57;15.77;;;5.50;99.90;;;;;;5039031;28;20736;-66
2022/03/17 05:46:25;;;;;;;32.23;15.00;;;5.50;99.90;;;;;;5040324;28;20189;-66
2022/03/17 05:48:51;;;;;;;32.80;16.40;;;5.60;99.90;;;;;;5039250;28;20205;-66
2022/03/17 05:51:17;;;;;;;29.83;15.10;;;5.60;99.90;;;;;;5019656;28;20427;-66
2022/03/17 05:53:43;;;;;;;44.13;20.20;;;5.60;99.90;;;;;;5032519;28;20424;-66
2022/03/17 05:56:08;;;;;;;32.97;16.73;;;5.60;99.90;;;;;;5035486;28;20178;-67
2022/03/17 05:58:34;;;;;;;39.47;17.17;;;5.60;99.90;;;;;;5040102;28;20268;-64
2022/03/17 06:00:59;;;;;;;38.87;19.20;;;5.60;99.90;;;;;;5036263;28;20237;-67
2022/03/17 06:03:25;;;;;;;37.40;18.27;;;5.70;99.90;;;;;;5040472;28;20201;-66
2022/03/17 06:05:51;;;;;;;38.37;17.83;;;5.70;99.90;;;;;;5035279;28;20217;-67
2022/03/17 06:08:16;;;;;;;30.73;18.53;;;5.70;99.90;;;;;;5039421;28;20186;-69
2022/03/17 06:10:42;;;;;;;42.60;20.13;;;5.70;99.90;;;;;;5033700;28;20183;-65
2022/03/17 06:13:08;;;;;;;38.77;20.97;;;5.80;99.90;;;;;;5036497;28;20257;-66
2022/03/17 06:15:34;;;;;;;43.17;18.17;;;5.80;99.90;;;;;;5028008;28;20185;-66
2022/03/17 06:18:03;;;;;;;42.70;18.43;;;5.80;99.90;;;;;;5046325;28;20565;-65
2022/03/17 06:20:30;;;;;;;40.73;18.37;;;5.90;99.90;;;;;;5029978;28;20526;-67
2022/03/17 06:22:59;;;;;;;35.50;15.83;;;5.90;99.90;;;;;;5022369;28;20464;-65
2022/03/17 06:25:27;;;;;;;39.50;18.77;;;5.90;99.90;;;;;;5045102;28;21137;-66
2022/03/17 06:27:53;;;;;;;40.10;18.93;;;6.00;99.90;;;;;;5042078;28;20940;-65
2022/03/17 06:30:21;;;;;;;43.87;18.70;;;6.00;99.90;;;;;;5036635;28;20433;-66
2022/03/17 06:32:48;;;;;;;38.67;19.07;;;6.00;99.90;;;;;;5028729;28;20973;-66
2022/03/17 06:35:20;;;;;;;40.70;16.27;;;6.10;99.90;;;;;;5038110;28;21129;-66
2022/03/17 06:37:47;;;;;;;36.93;18.80;;;6.10;99.90;;;;;;5039710;28;20428;-66
2022/03/17 06:40:15;;;;;;;36.37;17.47;;;6.20;99.90;;;;;;5025598;28;20442;-67
2022/03/17 06:42:41;;;;;;;37.73;17.23;;;6.20;99.90;;;;;;5032597;28;20469;-66
2022/03/17 06:45:07;;;;;;;44.90;17.03;;;6.20;99.90;;;;;;5036391;28;20864;-65
2022/03/17 06:47:33;;;;;;;41.33;18.93;;;6.30;99.90;;;;;;5041513;28;20420;-65
2022/03/17 06:49:58;;;;;;;33.30;17.27;;;6.30;99.90;;;;;;5031080;28;20889;-65
2022/03/17 06:52:25;;;;;;;34.00;17.97;;;6.30;99.90;;;;;;5028996;28;20189;-66
2022/03/17 06:54:51;;;;;;;31.20;16.43;;;6.30;99.90;;;;;;5034165;28;20209;-64
2022/03/17 06:57:21;;;;;;;36.67;19.50;;;6.40;99.90;;;;;;5033776;28;20452;-67
2022/03/17 06:59:51;;;;;;;40.60;18.77;;;6.40;99.90;;;;;;5029522;28;20495;-66
2022/03/17 07:02:17;;;;;;;39.50;18.70;;;6.40;99.90;;;;;;5028967;28;20470;-66
2022/03/17 07:04:46;;;;;;;32.73;16.80;;;6.50;99.90;;;;;;5033396;28;20457;-66
2022/03/17 07:07:13;;;;;;;36.10;16.60;;;6.50;99.90;;;;;;5037955;28;20526;-65
2022/03/17 07:09:41;;;;;;;40.53;18.73;;;6.50;99.90;;;;;;5035623;28;20447;-67
2022/03/17 07:12:07;;;;;;;39.07;17.50;;;6.60;99.90;;;;;;5041225;28;20425;-67
2022/03/17 07:14:33;;;;;;;42.50;18.83;;;6.60;99.90;;;;;;5041811;28;20420;-66
2022/03/17 07:16:58;;;;;;;36.90;18.33;;;6.60;99.90;;;;;;5041659;28;20927;-67
2022/03/17 07:19:24;;;;;;;31.50;15.17;;;6.70;99.90;;;;;;5033631;28;20260;-67
2022/03/17 07:21:53;;;;;;;47.97;20.30;;;6.70;99.90;;;;;;5040632;28;20194;-67
2022/03/17 07:24:19;;;;;;;37.10;16.30;;;6.70;99.90;;;;;;5025010;28;20687;-65
2022/03/17 07:26:44;;;;;;;39.93;17.23;;;6.80;99.90;;;;;;5021655;28;20444;-66
2022/03/17 07:29:11;;;;;;;37.00;16.43;;;6.90;99.90;;;;;;5036136;28;20558;-66
2022/03/17 07:31:36;;;;;;;41.23;18.07;;;6.90;99.90;;;;;;5026941;28;20194;-67
2022/03/17 07:34:02;;;;;;;36.50;17.13;;;6.90;99.90;;;;;;5023921;28;20500;-67
2022/03/17 07:36:28;;;;;;;26.93;14.70;;;6.90;99.90;;;;;;5028409;28;20186;-66
2022/03/17 07:38:58;;;;;;;50.77;21.83;;;7.00;99.90;;;;;;5034269;28;20222;-65
2022/03/17 07:41:24;;;;;;;33.33;17.60;;;7.00;99.90;;;;;;5026232;28;21027;-67
2022/03/17 07:43:51;;;;;;;38.93;16.90;;;7.00;99.90;;;;;;5030258;28;21034;-65
2022/03/17 07:46:18;;;;;;;34.23;17.17;;;7.10;99.90;;;;;;5013121;28;20433;-63
2022/03/17 07:48:46;;;;;;;33.67;16.20;;;7.10;99.90;;;;;;5028133;28;20941;-65
2022/03/17 07:51:12;;;;;;;34.03;16.67;;;7.10;99.90;;;;;;5030353;28;20428;-65
2022/03/17 07:53:39;;;;;;;29.33;16.13;;;7.10;99.90;;;;;;5031605;28;20433;-64
2022/03/17 07:56:10;;;;;;;33.57;16.10;;;7.10;99.90;;;;;;5023600;28;20937;-65
2022/03/17 07:58:37;;;;;;;32.20;16.23;;;7.20;99.90;;;;;;5026949;28;20471;-65
2022/03/17 08:01:03;;;;;;;35.70;15.53;;;7.20;99.90;;;;;;5023232;28;20479;-66
2022/03/17 08:03:29;;;;;;;29.30;15.50;;;7.20;99.90;;;;;;5032060;28;20489;-66
2022/03/17 08:05:55;;;;;;;47.30;18.97;;;7.30;99.90;;;;;;5033458;28;20540;-65
2022/03/17 08:08:20;;;;;;;27.90;14.53;;;7.40;99.90;;;;;;5034416;28;20198;-64
2022/03/17 08:10:46;;;;;;;37.07;16.30;;;7.40;99.90;;;;;;5034616;28;20197;-65
2022/03/17 08:13:13;;;;;;;33.30;15.10;;;7.40;99.90;;;;;;5038281;28;20284;-64
2022/03/17 08:15:40;;;;;;;35.27;16.70;;;7.50;99.90;;;;;;5032261;28;20202;-65
2022/03/17 08:18:09;;;;;;;33.00;15.23;;;7.60;99.90;;;;;;5032396;28;20522;-65
2022/03/17 08:20:39;;;;;;;33.67;15.13;;;7.60;99.90;;;;;;5036633;28;20506;-65
2022/03/17 08:23:06;;;;;;;32.00;13.80;;;7.60;99.90;;;;;;5034753;28;20611;-64
2022/03/17 08:25:32;;;;;;;33.30;15.40;;;7.70;99.90;;;;;;5039451;28;20531;-65
2022/03/17 08:27:58;;;;;;;31.80;13.77;;;7.70;99.90;;;;;;5037652;28;20952;-65
2022/03/17 08:30:23;;;;;;;35.20;15.57;;;7.80;99.90;;;;;;5017658;28;20253;-65
2022/03/17 08:32:49;;;;;;;29.27;14.13;;;7.80;99.90;;;;;;5029186;28;20556;-65
2022/03/17 08:35:15;;;;;;;31.50;13.17;;;7.90;99.90;;;;;;5040497;28;20182;-65
2022/03/17 08:37:42;;;;;;;30.00;14.30;;;7.90;99.90;;;;;;5035677;28;20248;-65
2022/03/17 08:40:09;;;;;;;25.70;13.03;;;7.90;99.90;;;;;;5033875;28;20213;-65
2022/03/17 08:42:35;;;;;;;26.93;13.60;;;7.90;99.90;;;;;;5033191;28;20933;-63
2022/03/17 08:45:01;;;;;;;36.93;17.10;;;7.90;99.90;;;;;;5039427;28;20431;-66
2022/03/17 08:50:11;;;;;;;28.53;14.10;;;8.00;99.90;;;;;;5039233;28;20443;-65
2022/03/17 08:52:36;;;;;;;31.03;14.47;;;8.10;99.90;;;;;;5034586;28;20417;-64
2022/03/17 08:55:02;;;;;;;25.80;12.90;;;8.10;99.90;;;;;;5041960;28;20190;-65
2022/03/17 08:57:28;;;;;;;30.07;14.73;;;8.10;99.90;;;;;;5040010;28;20549;-67
2022/03/17 08:59:54;;;;;;;30.30;14.93;;;8.20;99.90;;;;;;5038877;28;20682;-62
2022/03/17 09:02:19;;;;;;;29.17;12.90;;;8.20;99.90;;;;;;5037605;28;20676;-65
2022/03/17 09:04:45;;;;;;;25.07;13.13;;;8.30;99.90;;;;;;5036784;28;20712;-65
2022/03/17 09:07:11;;;;;;;28.67;15.03;;;8.30;99.90;;;;;;5031671;28;20579;-64
2022/03/17 09:09:38;;;;;;;22.90;12.60;;;8.40;99.90;;;;;;5030128;28;20249;-64
2022/03/17 09:12:06;;;;;;;28.17;13.70;;;8.40;99.90;;;;;;5033273;28;21108;-65
2022/03/17 09:14:33;;;;;;;23.97;12.67;;;8.40;99.90;;;;;;5030774;28;20455;-65
2022/03/17 09:17:01;;;;;;;30.43;12.87;;;8.50;99.90;;;;;;5024471;28;20444;-65
2022/03/17 09:19:27;;;;;;;29.23;13.07;;;8.50;99.90;;;;;;5021923;28;20521;-66
2022/03/17 09:21:52;;;;;;;30.93;13.93;;;8.50;99.90;;;;;;5039450;28;20432;-64
2022/03/17 09:24:18;;;;;;;24.07;12.70;;;8.60;99.90;;;;;;5037663;28;20186;-64
2022/03/17 09:26:44;;;;;;;29.07;13.00;;;8.50;99.90;;;;;;5037025;28;20701;-65
2022/03/17 09:29:09;;;;;;;25.40;12.57;;;8.60;99.90;;;;;;5039072;28;20225;-66
2022/03/17 09:31:35;;;;;;;29.60;13.50;;;8.60;99.90;;;;;;5036828;28;20519;-64
2022/03/17 09:34:01;;;;;;;27.33;14.67;;;8.60;99.90;;;;;;5038021;28;20196;-64
2022/03/17 09:36:27;;;;;;;27.50;13.30;;;8.60;99.90;;;;;;5041211;28;20948;-66
2022/03/17 09:41:37;;;;;;;27.60;13.60;;;8.60;99.90;;;;;;5033854;28;20197;-64
2022/03/17 09:44:04;;;;;;;31.27;14.67;;;8.70;99.90;;;;;;5035035;28;20456;-66
2022/03/17 09:46:31;;;;;;;30.67;13.03;;;8.80;99.90;;;;;;5039732;28;20193;-64
2022/03/17 09:48:58;;;;;;;22.80;12.13;;;8.80;99.90;;;;;;5037761;28;20448;-64
2022/03/17 09:51:26;;;;;;;41.37;13.77;;;8.70;99.90;;;;;;5030998;28;20447;-65
2022/03/17 09:53:54;;;;;;;22.80;12.30;;;8.70;99.90;;;;;;5038313;28;20428;-64
2022/03/17 09:56:23;;;;;;;26.40;12.93;;;8.70;99.90;;;;;;5039651;28;20416;-66
2022/03/17 09:58:51;;;;;;;29.13;13.93;;;8.80;99.90;;;;;;5017962;28;20513;-66
2022/03/17 10:01:19;;;;;;;31.20;13.40;;;8.80;99.90;;;;;;5042953;28;20535;-66
2022/03/17 10:03:48;;;;;;;25.50;12.27;;;8.80;99.90;;;;;;5019390;28;20537;-64
2022/03/17 10:06:17;;;;;;;25.00;12.57;;;8.90;99.90;;;;;;5033961;28;21098;-65
2022/03/17 10:08:45;;;;;;;27.93;13.80;;;8.80;99.90;;;;;;5022725;28;20449;-65
2022/03/17 10:11:16;;;;;;;23.00;12.77;;;8.80;99.90;;;;;;5038664;28;20962;-64
2022/03/17 10:13:46;;;;;;;21.03;12.53;;;8.80;99.90;;;;;;5032544;28;20523;-65
2022/03/17 10:16:17;;;;;;;29.50;12.73;;;8.90;99.90;;;;;;5040564;28;20439;-64
2022/03/17 10:18:45;;;;;;;37.10;13.87;;;8.90;99.90;;;;;;5032460;28;20448;-65
2022/03/17 10:21:17;;;;;;;26.33;11.60;;;9.00;99.90;;;;;;5031713;28;20424;-65
2022/03/17 10:23:47;;;;;;;27.20;13.73;;;9.00;99.90;;;;;;5030250;28;20460;-65
2022/03/17 10:26:49;;;;;;;24.17;12.90;;;9.10;99.90;;;;;;5033334;28;20519;-65
2022/03/17 10:29:22;;;;;;;27.20;12.70;;;9.10;99.90;;;;;;5034927;28;20506;-65
2022/03/17 10:31:59;;;;;;;25.50;11.73;;;9.20;99.90;;;;;;5035439;28;20545;-66
2022/03/17 10:34:32;;;;;;;24.20;12.13;;;9.20;99.90;;;;;;5038485;28;20534;-65
2022/03/17 10:37:19;;;;;;;25.43;13.23;;;9.40;99.90;;;;;;5036779;28;20452;-65
2022/03/17 10:39:50;;;;;;;20.43;11.57;;;9.50;99.90;;;;;;5033211;28;20477;-65
2022/03/17 10:42:27;;;;;;;28.70;13.17;;;9.80;99.90;;;;;;5039785;28;20464;-65
2022/03/17 10:44:58;;;;;;;28.73;11.53;;;9.80;99.90;;;;;;5042112;28;20416;-64
2022/03/17 10:47:42;;;;;;;28.13;12.47;;;9.80;99.90;;;;;;5043149;28;20415;-63
2022/03/17 10:50:20;;;;;;;31.83;15.53;;;9.80;99.90;;;;;;5021428;28;20555;-65
2022/03/17 10:52:51;;;;;;;27.80;12.97;;;9.90;99.90;;;;;;5041236;28;20909;-64
2022/03/17 10:55:23;;;;;;;32.23;12.07;;;9.90;99.90;;;;;;5042069;28;20424;-62
2022/03/17 10:57:50;;;;;;;24.80;12.60;;;10.00;99.90;;;;;;5040757;28;20424;-64
2022/03/17 11:00:21;;;;;;;32.43;12.90;;;9.90;99.90;;;;;;5040966;28;20464;-65
2022/03/17 11:02:49;;;;;;;29.47;13.70;;;9.90;99.90;;;;;;5043338;28;20932;-64
2022/03/17 11:05:17;;;;;;;23.97;11.30;;;9.90;99.90;;;;;;5038910;28;20441;-65
2022/03/17 11:07:45;;;;;;;28.73;11.73;;;10.00;99.90;;;;;;5031881;28;20453;-64
2022/03/17 11:10:15;;;;;;;27.57;11.93;;;10.00;99.90;;;;;;5013635;28;20453;-65
2022/03/17 11:12:43;;;;;;;29.10;13.40;;;10.00;99.90;;;;;;5036059;28;20496;-66
2022/03/17 11:15:23;;;;;;;26.77;11.27;;;10.00;99.90;;;;;;5037786;28;20532;-63
2022/03/17 11:17:50;;;;;;;27.70;11.90;;;10.00;99.90;;;;;;5033488;28;20455;-64
2022/03/17 11:20:23;;;;;;;55.57;12.90;;;10.00;99.90;;;;;;5036583;28;20580;-64
2022/03/17 11:23:11;;;;;;;26.77;12.17;;;10.00;99.90;;;;;;5039298;28;21047;-64
2022/03/17 11:25:37;;;;;;;31.50;13.17;;;10.00;99.90;;;;;;5041039;28;20443;-65
2022/03/17 11:28:05;;;;;;;27.67;13.20;;;9.80;99.90;;;;;;5031576;28;21368;-63
2022/03/17 11:30:45;;;;;;;34.37;15.13;;;9.80;99.90;;;;;;5035994;28;20844;-64
2022/03/17 11:33:43;;;;;;;25.90;11.90;;;9.70;99.90;;;;;;5035882;28;20460;-64
2022/03/17 11:36:08;;;;;;;25.87;11.27;;;9.70;99.90;;;;;;5019114;28;20494;-64
2022/03/17 11:38:38;;;;;;;31.60;12.00;;;9.60;99.90;;;;;;5036775;28;20447;-65
2022/03/17 11:41:04;;;;;;;28.10;12.77;;;9.60;99.90;;;;;;5037791;28;20197;-65
2022/03/17 11:43:58;;;;;;;23.13;11.67;;;9.70;99.90;;;;;;5029121;28;20456;-67
2022/03/17 11:46:46;;;;;;;30.17;13.37;;;9.70;99.90;;;;;;5036164;28;20182;-67
2022/03/17 11:49:18;;;;;;;23.97;13.07;;;9.70;99.90;;;;;;5028895;28;20445;-64
2022/03/17 11:52:01;;;;;;;36.13;14.70;;;9.60;99.90;;;;;;5041640;28;20441;-64
2022/03/17 11:54:28;;;;;;;34.27;15.50;;;9.60;99.90;;;;;;5038146;28;20420;-65
2022/03/17 11:56:56;;;;;;;30.90;15.47;;;9.70;99.90;;;;;;5022503;28;20428;-64
2022/03/17 11:59:27;;;;;;;26.90;13.57;;;9.70;99.90;;;;;;5035465;28;20495;-64
2022/03/17 12:01:55;;;;;;;29.60;13.87;;;9.70;99.90;;;;;;5038290;28;20813;-65
2022/03/17 12:04:31;;;;;;;34.83;15.23;;;9.80;99.90;;;;;;5037964;28;21195;-65
2022/03/17 12:07:09;;;;;;;29.13;13.50;;;9.70;99.90;;;;;;5033384;28;20519;-65
2022/03/17 12:09:35;;;;;;;45.20;13.60;;;9.80;99.90;;;;;;5029304;28;21261;-66
2022/03/17 12:12:03;;;;;;;45.20;14.87;;;9.80;99.90;;;;;;5023475;28;20421;-66
2022/03/17 12:14:33;;;;;;;33.73;15.60;;;9.80;99.90;;;;;;5027625;28;20518;-66
2022/03/17 12:17:19;;;;;;;34.43;14.70;;;9.90;99.90;;;;;;5031984;28;21044;-65
2022/03/17 12:19:49;;;;;;;29.37;15.20;;;9.90;99.90;;;;;;5011838;28;20443;-66
2022/03/17 12:22:14;;;;;;;27.40;13.37;;;9.80;99.90;;;;;;5033057;28;20459;-65
2022/03/17 12:24:58;;;;;;;33.80;14.33;;;9.90;99.90;;;;;;5034052;28;20436;-66
2022/03/17 12:27:37;;;;;;;32.03;15.83;;;9.90;99.90;;;;;;5032456;28;20193;-64
2022/03/17 12:30:02;;;;;;;32.60;15.80;;;9.90;99.90;;;;;;5028545;28;20495;-66
2022/03/17 12:32:34;;;;;;;32.37;15.07;;;9.90;99.90;;;;;;5038555;28;20421;-66
2022/03/17 12:35:00;;;;;;;48.67;16.57;;;9.80;99.90;;;;;;5026685;28;20713;-67
2022/03/17 12:37:29;;;;;;;39.60;16.77;;;9.80;99.90;;;;;;5040643;28;20435;-66
2022/03/17 12:39:57;;;;;;;39.97;18.47;;;9.80;99.90;;;;;;5030366;28;21041;-64
2022/03/17 12:42:25;;;;;;;40.13;18.13;;;9.80;99.90;;;;;;5027781;28;20468;-66
2022/03/17 12:44:54;;;;;;;36.20;17.83;;;9.80;99.90;;;;;;5034067;28;20432;-67
2022/03/17 12:47:24;;;;;;;40.03;15.97;;;9.90;99.90;;;;;;5038103;28;20427;-66
2022/03/17 12:49:51;;;;;;;53.73;19.53;;;9.80;99.90;;;;;;5030830;28;20559;-64
2022/03/17 12:52:21;;;;;;;36.50;17.03;;;9.80;99.90;;;;;;5037599;28;20432;-65
2022/03/17 12:54:48;;;;;;;37.30;17.87;;;9.70;99.90;;;;;;5013275;28;20459;-66
2022/03/17 12:57:13;;;;;;;51.97;20.50;;;9.70;99.90;;;;;;5040820;28;20511;-63